createdAt,value
2018-04-10T00:00:13.548Z,66.09
2018-04-10T00:01:13.515Z,65.91
2018-04-10T00:02:13.485Z,66.00
2018-04-10T00:03:13.467Z,65.91
2018-04-10T00:04:13.456Z,66.29
2018-04-10T00:05:13.437Z,66.58
2018-04-10T00:06:13.427Z,66.67
2018-04-10T00:07:13.416Z,66.38
2018-04-10T00:08:13.408Z,66.67
2018-04-10T00:09:13.382Z,66.77
2018-04-10T00:10:13.380Z,66.77
2018-04-10T00:11:13.349Z,66.96
2018-04-10T00:12:13.333Z,66.96
2018-04-10T00:13:13.317Z,66.77
2018-04-10T00:14:13.327Z,66.67
2018-04-10T00:15:13.296Z,66.77
2018-04-10T00:16:13.274Z,66.77
2018-04-10T00:17:13.262Z,66.67
2018-04-10T00:18:13.246Z,66.86
2018-04-10T00:19:13.231Z,67.05
2018-04-10T00:20:13.303Z,66.96
2018-04-10T00:21:13.202Z,66.86
2018-04-10T00:22:13.190Z,67.05
2018-04-10T00:23:13.177Z,67.44
2018-04-10T00:24:13.156Z,67.63
2018-04-10T00:25:13.141Z,68.30
2018-04-10T00:26:13.126Z,68.21
2018-04-10T00:27:13.111Z,67.82
2018-04-10T00:28:13.182Z,67.63
2018-04-10T00:29:13.082Z,68.40
2018-04-10T00:30:13.071Z,68.40
2018-04-10T00:31:13.052Z,68.40
2018-04-10T00:32:13.041Z,68.59
2018-04-10T00:33:13.029Z,68.49
2018-04-10T00:34:13.012Z,68.21
2018-04-10T00:35:13.004Z,68.11
2018-04-10T00:36:12.986Z,68.49
2018-04-10T00:37:12.964Z,68.49
2018-04-10T00:38:12.951Z,68.30
2018-04-10T00:39:12.933Z,68.01
2018-04-10T00:40:12.920Z,68.59
2018-04-10T00:41:12.906Z,68.59
2018-04-10T00:42:12.893Z,68.30
2018-04-10T00:43:12.876Z,68.49
2018-04-10T00:44:12.876Z,68.68
2018-04-10T00:45:12.848Z,68.49
2018-04-10T00:46:12.838Z,68.59
2018-04-10T00:47:12.823Z,68.40
2018-04-10T00:48:12.808Z,68.68
2018-04-10T00:49:12.792Z,68.01
2018-04-10T00:50:12.777Z,68.49
2018-04-10T00:51:12.761Z,68.30
2018-04-10T00:52:12.747Z,68.49
2018-04-10T00:53:12.732Z,68.30
2018-04-10T00:54:12.733Z,68.49
2018-04-10T00:55:12.702Z,68.40
2018-04-10T00:56:12.689Z,68.78
2018-04-10T00:57:12.677Z,69.17
2018-04-10T00:58:12.668Z,68.78
2018-04-10T00:59:12.645Z,69.54
2018-04-10T01:00:12.704Z,69.45
2018-04-10T01:01:12.615Z,69.45
2018-04-10T01:02:12.601Z,69.54
2018-04-10T01:03:12.590Z,69.17
2018-04-10T01:04:12.577Z,68.87
2018-04-10T01:05:12.558Z,68.68
2018-04-10T01:06:12.546Z,69.35
2018-04-10T01:07:12.536Z,69.13
2018-04-10T01:08:12.515Z,68.78
2018-04-10T01:09:12.500Z,69.54
2018-04-10T01:10:12.484Z,69.17
2018-04-10T01:11:12.470Z,69.54
2018-04-10T01:12:12.457Z,69.35
2018-04-10T01:13:12.528Z,69.26
2018-04-10T01:14:12.430Z,69.07
2018-04-10T01:15:12.414Z,69.26
2018-04-10T01:16:12.407Z,69.51
2018-04-10T01:17:12.386Z,69.64
2018-04-10T01:18:12.380Z,69.99
2018-04-10T01:19:12.354Z,69.70
2018-04-10T01:20:12.341Z,69.80
2018-04-10T01:21:12.332Z,69.74
2018-04-10T01:22:12.313Z,69.89
2018-04-10T01:23:12.298Z,69.54
2018-04-10T01:24:12.283Z,69.35
2018-04-10T01:25:12.269Z,69.60
2018-04-10T01:26:12.264Z,69.32
2018-04-10T01:27:12.239Z,69.32
2018-04-10T01:28:12.230Z,69.80
2018-04-10T01:29:12.208Z,70.47
2018-04-10T01:30:12.195Z,70.37
2018-04-10T01:31:12.183Z,70.18
2018-04-10T01:32:12.166Z,70.47
2018-04-10T01:33:12.153Z,70.66
2018-04-10T01:34:12.142Z,70.66
2018-04-10T01:35:12.122Z,70.66
2018-04-10T01:36:12.108Z,70.66
2018-04-10T01:37:12.096Z,71.14
2018-04-10T01:38:12.087Z,71.04
2018-04-10T01:39:12.073Z,70.76
2018-04-10T01:40:12.069Z,71.14
2018-04-10T01:41:12.034Z,70.95
2018-04-10T01:42:12.023Z,70.76
2018-04-10T01:43:12.062Z,70.76
2018-04-10T01:44:11.992Z,70.76
2018-04-10T01:45:11.978Z,72.00
2018-04-10T01:46:11.961Z,72.00
2018-04-10T01:47:11.946Z,71.91
2018-04-10T01:48:11.931Z,71.81
2018-04-10T01:49:11.917Z,71.71
2018-04-10T01:50:11.903Z,71.68
2018-04-10T01:51:11.894Z,71.58
2018-04-10T01:52:11.875Z,71.97
2018-04-10T01:53:11.856Z,72.06
2018-04-10T01:54:11.846Z,72.09
2018-04-10T01:55:11.826Z,71.77
2018-04-10T01:56:11.881Z,71.52
2018-04-10T01:57:11.802Z,72.48
2018-04-10T01:58:11.781Z,72.09
2018-04-10T01:59:11.899Z,71.97
2018-04-10T02:00:11.751Z,72.34
2018-04-10T02:01:11.750Z,72.67
2018-04-10T02:02:11.724Z,72.67
2018-04-10T02:03:11.709Z,72.96
2018-04-10T02:04:11.693Z,73.05
2018-04-10T02:05:11.682Z,73.15
2018-04-10T02:06:11.667Z,73.02
2018-04-10T02:07:11.650Z,72.44
2018-04-10T02:08:11.635Z,72.92
2018-04-10T02:09:11.620Z,72.92
2018-04-10T02:10:11.604Z,73.59
2018-04-10T02:11:11.590Z,73.11
2018-04-10T02:12:11.580Z,72.73
2018-04-10T02:13:11.569Z,72.92
2018-04-10T02:14:11.549Z,73.40
2018-04-10T02:15:11.635Z,73.11
2018-04-10T02:16:11.519Z,73.05
2018-04-10T02:17:11.503Z,72.73
2018-04-10T02:18:11.491Z,73.50
2018-04-10T02:19:11.471Z,73.69
2018-04-10T02:20:11.459Z,73.40
2018-04-10T02:21:11.443Z,74.36
2018-04-10T02:22:11.429Z,73.79
2018-04-10T02:23:11.426Z,74.26
2018-04-10T02:24:11.398Z,74.84
2018-04-10T02:25:11.386Z,75.02
2018-04-10T02:26:11.373Z,74.65
2018-04-10T02:27:11.353Z,74.55
2018-04-10T02:28:11.340Z,74.45
2018-04-10T02:29:11.329Z,74.65
2018-04-10T02:30:11.311Z,74.74
2018-04-10T02:31:11.293Z,74.84
2018-04-10T02:32:11.281Z,74.65
2018-04-10T02:33:11.268Z,75.12
2018-04-10T02:34:11.254Z,75.79
2018-04-10T02:35:11.239Z,76.27
2018-04-10T02:36:11.220Z,75.85
2018-04-10T02:37:11.207Z,76.75
2018-04-10T02:38:11.194Z,76.56
2018-04-10T02:39:11.313Z,76.75
2018-04-10T02:40:11.164Z,75.89
2018-04-10T02:41:11.147Z,75.37
2018-04-10T02:42:11.192Z,76.14
2018-04-10T02:43:11.118Z,76.84
2018-04-10T02:44:11.104Z,77.33
2018-04-10T02:45:11.087Z,77.23
2018-04-10T02:46:11.074Z,76.81
2018-04-10T02:47:11.056Z,76.90
2018-04-10T02:48:11.042Z,76.52
2018-04-10T02:49:11.027Z,76.33
2018-04-10T02:50:11.012Z,76.62
2018-04-10T02:51:10.997Z,76.90
2018-04-10T02:52:10.982Z,77.19
2018-04-10T02:53:10.967Z,76.90
2018-04-10T02:54:10.955Z,77.09
2018-04-10T02:55:11.061Z,77.38
2018-04-10T02:56:10.941Z,77.28
2018-04-10T02:57:10.906Z,77.19
2018-04-10T02:58:10.918Z,77.48
2018-04-10T02:59:10.874Z,77.28
2018-04-10T03:00:10.866Z,77.38
2018-04-10T03:01:10.848Z,77.38
2018-04-10T03:02:10.840Z,77.00
2018-04-10T03:03:10.860Z,77.67
2018-04-10T03:04:10.806Z,77.09
2018-04-10T03:05:10.788Z,77.67
2018-04-10T03:06:10.776Z,77.76
2018-04-10T03:07:10.755Z,77.95
2018-04-10T03:08:10.747Z,78.63
2018-04-10T03:09:10.727Z,78.24
2018-04-10T03:10:10.713Z,78.63
2018-04-10T03:11:10.695Z,78.63
2018-04-10T03:12:10.685Z,78.43
2018-04-10T03:13:10.666Z,78.72
2018-04-10T03:14:10.653Z,78.72
2018-04-10T03:15:10.633Z,78.43
2018-04-10T03:16:10.618Z,79.20
2018-04-10T03:17:10.606Z,79.00
2018-04-10T03:18:10.592Z,79.29
2018-04-10T03:19:10.770Z,78.81
2018-04-10T03:20:10.560Z,79.49
2018-04-10T03:21:10.544Z,79.39
2018-04-10T03:22:10.606Z,79.20
2018-04-10T03:23:10.515Z,79.58
2018-04-10T03:24:10.502Z,79.29
2018-04-10T03:25:10.483Z,79.77
2018-04-10T03:26:10.467Z,79.49
2018-04-10T03:27:10.456Z,79.58
2018-04-10T03:28:10.443Z,79.77
2018-04-10T03:29:10.422Z,80.16
2018-04-10T03:30:10.408Z,79.77
2018-04-10T03:31:10.392Z,79.96
2018-04-10T03:32:10.552Z,80.06
2018-04-10T03:33:10.374Z,79.29
2018-04-10T03:34:10.344Z,79.29
2018-04-10T03:35:10.366Z,79.29
2018-04-10T03:36:10.315Z,79.77
2018-04-10T03:37:10.302Z,80.06
2018-04-10T03:38:10.284Z,79.96
2018-04-10T03:39:10.278Z,80.06
2018-04-10T03:40:10.254Z,79.87
2018-04-10T03:41:10.247Z,79.96
2018-04-10T03:42:10.223Z,79.96
2018-04-10T03:43:10.210Z,79.96
2018-04-10T03:44:10.193Z,80.06
2018-04-10T03:45:10.175Z,79.96
2018-04-10T03:46:10.161Z,79.96
2018-04-10T03:47:10.145Z,79.87
2018-04-10T03:48:10.180Z,79.83
2018-04-10T03:49:10.116Z,80.40
2018-04-10T03:50:10.119Z,80.73
2018-04-10T03:51:10.179Z,80.79
2018-04-10T03:52:10.075Z,80.59
2018-04-10T03:53:10.050Z,80.69
2018-04-10T03:54:10.068Z,81.36
2018-04-10T03:55:10.022Z,81.45
2018-04-10T03:56:10.004Z,81.84
2018-04-10T03:57:09.989Z,82.22
2018-04-10T03:58:09.974Z,82.12
2018-04-10T03:59:09.958Z,82.41
2018-04-10T04:00:09.939Z,82.41
2018-04-10T04:01:09.927Z,82.51
2018-04-10T04:02:09.937Z,82.41
2018-04-10T04:03:09.898Z,82.98
2018-04-10T04:04:09.879Z,82.41
2018-04-10T04:05:09.866Z,83.08
2018-04-10T04:06:09.866Z,82.98
2018-04-10T04:07:09.880Z,82.79
2018-04-10T04:08:09.821Z,83.08
2018-04-10T04:09:09.802Z,82.98
2018-04-10T04:10:09.849Z,83.17
2018-04-10T04:11:09.773Z,82.98
2018-04-10T04:12:09.757Z,83.37
2018-04-10T04:13:09.738Z,82.89
2018-04-10T04:14:09.728Z,82.79
2018-04-10T04:15:09.709Z,83.08
2018-04-10T04:16:09.705Z,83.17
2018-04-10T04:17:09.683Z,82.79
2018-04-10T04:18:09.666Z,82.98
2018-04-10T04:19:09.649Z,83.27
2018-04-10T04:20:09.632Z,83.37
2018-04-10T04:21:09.615Z,83.42
2018-04-10T04:22:09.611Z,83.37
2018-04-10T04:23:09.592Z,83.51
2018-04-10T04:24:09.571Z,83.90
2018-04-10T04:25:09.556Z,83.90
2018-04-10T04:26:09.545Z,83.61
2018-04-10T04:27:09.520Z,83.51
2018-04-10T04:28:09.510Z,83.90
2018-04-10T04:29:09.489Z,83.61
2018-04-10T04:30:09.473Z,83.90
2018-04-10T04:31:09.616Z,84.09
2018-04-10T04:32:09.479Z,84.19
2018-04-10T04:33:09.428Z,84.85
2018-04-10T04:34:09.416Z,84.56
2018-04-10T04:35:09.396Z,84.47
2018-04-10T04:36:09.386Z,84.38
2018-04-10T04:37:09.365Z,84.47
2018-04-10T04:38:09.353Z,83.80
2018-04-10T04:39:09.334Z,83.99
2018-04-10T04:40:09.316Z,84.28
2018-04-10T04:41:09.302Z,83.70
2018-04-10T04:42:09.288Z,83.90
2018-04-10T04:43:09.271Z,84.80
2018-04-10T04:44:09.256Z,84.23
2018-04-10T04:45:09.238Z,83.75
2018-04-10T04:46:09.225Z,83.94
2018-04-10T04:47:09.206Z,84.52
2018-04-10T04:48:09.192Z,84.38
2018-04-10T04:49:09.176Z,84.61
2018-04-10T04:50:09.265Z,84.56
2018-04-10T04:51:09.144Z,84.56
2018-04-10T04:52:09.131Z,84.56
2018-04-10T04:53:09.114Z,84.38
2018-04-10T04:54:09.100Z,84.47
2018-04-10T04:55:09.083Z,84.56
2018-04-10T04:56:09.065Z,84.66
2018-04-10T04:57:09.051Z,84.56
2018-04-10T04:58:09.037Z,84.56
2018-04-10T04:59:09.025Z,84.66
2018-04-10T05:00:09.003Z,84.76
2018-04-10T05:01:08.990Z,84.38
2018-04-10T05:02:08.971Z,84.38
2018-04-10T05:03:08.963Z,84.56
2018-04-10T05:04:08.940Z,84.28
2018-04-10T05:05:08.924Z,84.56
2018-04-10T05:06:08.909Z,84.85
2018-04-10T05:07:08.892Z,84.76
2018-04-10T05:08:08.882Z,84.09
2018-04-10T05:09:08.878Z,83.61
2018-04-10T05:10:08.849Z,83.99
2018-04-10T05:11:08.839Z,84.42
2018-04-10T05:12:08.815Z,83.94
2018-04-10T05:13:08.798Z,83.94
2018-04-10T05:14:08.785Z,83.75
2018-04-10T05:15:08.777Z,83.94
2018-04-10T05:16:08.751Z,84.52
2018-04-10T05:17:08.744Z,83.75
2018-04-10T05:18:08.722Z,83.65
2018-04-10T05:19:08.704Z,83.17
2018-04-10T05:20:08.691Z,82.89
2018-04-10T05:21:08.672Z,83.08
2018-04-10T05:22:08.658Z,83.08
2018-04-10T05:23:08.642Z,82.60
2018-04-10T05:24:08.629Z,83.08
2018-04-10T05:25:08.617Z,82.41
2018-04-10T05:26:08.597Z,82.60
2018-04-10T05:27:08.581Z,82.51
2018-04-10T05:28:08.570Z,82.12
2018-04-10T05:29:08.549Z,82.22
2018-04-10T05:30:08.552Z,82.12
2018-04-10T05:31:08.535Z,83.08
2018-04-10T05:32:08.506Z,82.74
2018-04-10T05:33:08.544Z,82.93
2018-04-10T05:34:08.477Z,82.07
2018-04-10T05:35:08.462Z,82.45
2018-04-10T05:36:08.440Z,82.17
2018-04-10T05:37:08.434Z,81.68
2018-04-10T05:38:08.410Z,80.44
2018-04-10T05:39:08.395Z,82.64
2018-04-10T05:40:08.384Z,82.26
2018-04-10T05:41:08.366Z,80.54
2018-04-10T05:42:08.348Z,80.82
2018-04-10T05:43:08.337Z,80.82
2018-04-10T05:44:08.318Z,80.54
2018-04-10T05:45:08.305Z,80.35
2018-04-10T05:46:08.290Z,80.25
2018-04-10T05:47:08.286Z,80.54
2018-04-10T05:48:08.256Z,80.73
2018-04-10T05:49:08.259Z,80.44
2018-04-10T05:50:08.227Z,80.35
2018-04-10T05:51:08.217Z,79.87
2018-04-10T05:52:08.250Z,80.06
2018-04-10T05:53:08.201Z,79.58
2018-04-10T05:54:08.166Z,80.10
2018-04-10T05:55:08.154Z,79.72
2018-04-10T05:56:08.138Z,79.43
2018-04-10T05:57:08.128Z,79.05
2018-04-10T05:58:08.106Z,78.76
2018-04-10T05:59:08.099Z,78.38
2018-04-10T06:00:08.080Z,78.66
2018-04-10T06:01:08.073Z,78.66
2018-04-10T06:02:08.047Z,77.42
2018-04-10T06:03:08.035Z,77.94
2018-04-10T06:04:08.017Z,77.26
2018-04-10T06:05:08.002Z,77.65
2018-04-10T06:06:07.989Z,76.89
2018-04-10T06:07:07.972Z,76.69
2018-04-10T06:08:08.015Z,76.40
2018-04-10T06:09:07.947Z,75.68
2018-04-10T06:10:07.932Z,74.52
2018-04-10T06:11:07.915Z,74.18
2018-04-10T06:12:07.902Z,72.64
2018-04-10T06:13:07.896Z,71.63
2018-04-10T06:14:07.883Z,71.05
2018-04-10T06:15:07.861Z,70.42
2018-04-10T06:16:07.912Z,70.42
2018-04-10T06:17:07.839Z,69.46
2018-04-10T06:18:07.820Z,68.44
2018-04-10T06:19:07.808Z,67.76
2018-04-10T06:20:07.795Z,67.09
2018-04-10T06:21:07.780Z,67.47
2018-04-10T06:22:07.766Z,67.00
2018-04-10T06:23:07.752Z,66.52
2018-04-10T06:24:07.748Z,66.16
2018-04-10T06:25:07.731Z,65.40
2018-04-10T06:26:07.717Z,65.20
2018-04-10T06:27:07.718Z,64.72
2018-04-10T06:28:07.693Z,64.43
2018-04-10T06:29:07.683Z,64.76
2018-04-10T06:30:07.671Z,65.11
2018-04-10T06:31:07.654Z,65.05
2018-04-10T06:32:07.746Z,64.66
2018-04-10T06:33:07.633Z,65.05
2018-04-10T06:34:07.624Z,64.43
2018-04-10T06:35:07.612Z,64.34
2018-04-10T06:36:07.600Z,65.69
2018-04-10T06:37:07.590Z,66.03
2018-04-10T06:38:07.580Z,66.71
2018-04-10T06:39:07.569Z,67.09
2018-04-10T06:40:07.571Z,67.86
2018-04-10T06:41:07.546Z,67.63
2018-04-10T06:42:07.532Z,68.50
2018-04-10T06:43:07.537Z,68.59
2018-04-10T06:44:07.514Z,68.69
2018-04-10T06:45:07.517Z,68.50
2018-04-10T06:46:07.500Z,68.40
2018-04-10T06:47:07.486Z,68.50
2018-04-10T06:48:07.469Z,68.98
2018-04-10T06:49:07.459Z,68.40
2018-04-10T06:50:07.449Z,68.40
2018-04-10T06:51:07.434Z,68.30
2018-04-10T06:52:07.424Z,68.21
2018-04-10T06:53:07.414Z,67.67
2018-04-10T06:54:07.407Z,67.96
2018-04-10T06:55:07.392Z,67.67
2018-04-10T06:56:07.382Z,67.67
2018-04-10T06:57:07.368Z,67.86
2018-04-10T06:58:07.372Z,67.67
2018-04-10T06:59:07.347Z,67.00
2018-04-10T07:00:07.333Z,67.47
2018-04-10T07:01:07.348Z,67.86
2018-04-10T07:02:07.311Z,67.63
2018-04-10T07:03:07.298Z,67.38
2018-04-10T07:04:07.287Z,67.19
2018-04-10T07:05:07.276Z,67.63
2018-04-10T07:06:07.271Z,67.73
2018-04-10T07:07:07.255Z,67.83
2018-04-10T07:08:07.239Z,67.54
2018-04-10T07:09:07.229Z,67.92
2018-04-10T07:10:07.217Z,68.40
2018-04-10T07:11:07.205Z,68.21
2018-04-10T07:12:07.205Z,67.54
2018-04-10T07:13:07.189Z,67.47
2018-04-10T07:14:07.171Z,67.19
2018-04-10T07:15:07.156Z,67.47
2018-04-10T07:16:07.145Z,67.00
2018-04-10T07:17:07.138Z,67.19
2018-04-10T07:18:07.127Z,66.80
2018-04-10T07:19:07.107Z,66.36
2018-04-10T07:20:07.098Z,64.66
2018-04-10T07:21:07.084Z,63.92
2018-04-10T07:22:07.127Z,62.32
2018-04-10T07:23:07.065Z,61.00
2018-04-10T07:24:07.049Z,59.66
2018-04-10T07:25:07.036Z,59.37
2018-04-10T07:26:07.030Z,59.17
2018-04-10T07:27:07.016Z,58.72
2018-04-10T07:28:07.003Z,58.08
2018-04-10T07:29:06.995Z,57.12
2018-04-10T07:30:06.984Z,56.92
2018-04-10T07:31:06.982Z,55.89
2018-04-10T07:32:06.958Z,55.31
2018-04-10T07:33:06.962Z,55.41
2018-04-10T07:34:06.960Z,55.89
2018-04-10T07:35:07.018Z,55.41
2018-04-10T07:36:06.927Z,55.12
2018-04-10T07:37:06.917Z,55.22
2018-04-10T07:38:06.956Z,55.99
2018-04-10T07:39:06.889Z,55.41
2018-04-10T07:40:06.887Z,55.31
2018-04-10T07:41:06.874Z,55.41
2018-04-10T07:42:06.862Z,55.31
2018-04-10T07:43:06.854Z,55.89
2018-04-10T07:44:06.847Z,55.79
2018-04-10T07:45:06.838Z,55.41
2018-04-10T07:46:06.844Z,55.77
2018-04-10T07:47:06.822Z,55.77
2018-04-10T07:48:06.812Z,55.60
2018-04-10T07:49:06.808Z,55.41
2018-04-10T07:50:06.798Z,54.28
2018-04-10T07:51:06.801Z,52.95
2018-04-10T07:52:06.789Z,52.47
2018-04-10T07:53:06.772Z,51.82
2018-04-10T07:54:06.776Z,50.50
2018-04-10T07:55:06.760Z,50.50
2018-04-10T07:56:06.750Z,50.50
2018-04-10T07:57:06.748Z,50.21
2018-04-10T07:58:06.740Z,50.21
2018-04-10T07:59:06.740Z,50.59
2018-04-10T08:00:06.728Z,50.57
2018-04-10T08:01:06.724Z,50.96
2018-04-10T08:02:06.713Z,51.80
2018-04-10T08:03:06.704Z,52.45
2018-04-10T08:04:06.730Z,52.47
2018-04-10T08:05:06.699Z,51.92
2018-04-10T08:06:06.684Z,51.89
2018-04-10T08:07:06.682Z,51.99
2018-04-10T08:08:06.679Z,52.57
2018-04-10T08:09:06.665Z,52.67
2018-04-10T08:10:06.663Z,52.09
2018-04-10T08:11:06.655Z,51.34
2018-04-10T08:12:06.651Z,50.31
2018-04-10T08:13:06.644Z,50.11
2018-04-10T08:14:06.639Z,49.37
2018-04-10T08:15:06.635Z,48.88
2018-04-10T08:16:06.632Z,49.17
2018-04-10T08:17:06.624Z,48.88
2018-04-10T08:18:06.622Z,48.79
2018-04-10T08:19:06.619Z,48.88
2018-04-10T08:20:06.623Z,49.34
2018-04-10T08:21:06.617Z,49.73
2018-04-10T08:22:06.600Z,49.53
2018-04-10T08:23:06.598Z,49.44
2018-04-10T08:24:06.593Z,49.05
2018-04-10T08:25:06.691Z,49.34
2018-04-10T08:26:06.584Z,49.53
2018-04-10T08:27:06.577Z,48.97
2018-04-10T08:28:06.574Z,49.17
2018-04-10T08:29:06.570Z,49.17
2018-04-10T08:30:06.570Z,48.97
2018-04-10T08:31:06.571Z,48.69
2018-04-10T08:32:06.563Z,48.88
2018-04-10T08:33:06.564Z,48.86
2018-04-10T08:34:06.555Z,49.63
2018-04-10T08:35:06.614Z,49.55
2018-04-10T08:36:06.555Z,49.24
2018-04-10T08:37:06.548Z,49.24
2018-04-10T08:38:06.548Z,49.73
2018-04-10T08:39:06.541Z,48.97
2018-04-10T08:40:06.541Z,48.39
2018-04-10T08:41:06.539Z,47.63
2018-04-10T08:42:06.534Z,48.21
2018-04-10T08:43:06.527Z,48.30
2018-04-10T08:44:06.532Z,47.84
2018-04-10T08:45:06.539Z,47.19
2018-04-10T08:46:06.526Z,46.22
2018-04-10T08:47:06.526Z,46.05
2018-04-10T08:48:06.532Z,45.76
2018-04-10T08:49:06.506Z,46.15
2018-04-10T08:50:06.513Z,45.18
2018-04-10T08:51:06.508Z,44.98
2018-04-10T08:52:06.504Z,44.13
2018-04-10T08:53:06.501Z,43.27
2018-04-10T08:54:06.501Z,44.33
2018-04-10T08:55:06.500Z,44.91
2018-04-10T08:56:06.487Z,44.91
2018-04-10T08:57:06.484Z,44.79
2018-04-10T08:58:06.482Z,45.10
2018-04-10T08:59:06.482Z,45.08
2018-04-10T09:00:06.474Z,46.20
2018-04-10T09:01:06.575Z,47.36
2018-04-10T09:02:06.490Z,47.48
2018-04-10T09:03:06.476Z,47.09
2018-04-10T09:04:06.467Z,45.95
2018-04-10T09:05:06.465Z,45.28
2018-04-10T09:06:06.459Z,44.53
2018-04-10T09:07:06.454Z,43.85
2018-04-10T09:08:06.451Z,43.37
2018-04-10T09:09:06.452Z,43.95
2018-04-10T09:10:06.446Z,43.07
2018-04-10T09:11:06.460Z,43.46
2018-04-10T09:12:06.442Z,43.17
2018-04-10T09:13:06.441Z,43.85
2018-04-10T09:14:06.458Z,43.37
2018-04-10T09:15:06.437Z,43.85
2018-04-10T09:16:06.447Z,43.55
2018-04-10T09:17:06.438Z,43.75
2018-04-10T09:18:06.434Z,43.27
2018-04-10T09:19:06.513Z,43.85
2018-04-10T09:20:06.452Z,42.71
2018-04-10T09:21:06.432Z,42.05
2018-04-10T09:22:06.485Z,41.58
2018-04-10T09:23:06.431Z,41.10
2018-04-10T09:24:06.429Z,41.30
2018-04-10T09:25:06.434Z,40.25
2018-04-10T09:26:06.431Z,40.54
2018-04-10T09:27:06.433Z,39.88
2018-04-10T09:28:06.431Z,39.57
2018-04-10T09:29:06.491Z,39.88
2018-04-10T09:30:06.435Z,39.59
2018-04-10T09:31:06.440Z,39.59
2018-04-10T09:32:06.579Z,39.12
2018-04-10T09:33:06.441Z,38.56
2018-04-10T09:34:06.439Z,38.54
2018-04-10T09:35:06.443Z,39.12
2018-04-10T09:36:06.440Z,38.46
2018-04-10T09:37:06.442Z,38.73
2018-04-10T09:38:06.442Z,38.27
2018-04-10T09:39:06.448Z,38.46
2018-04-10T09:40:06.447Z,38.27
2018-04-10T09:41:06.457Z,37.98
2018-04-10T09:42:06.459Z,37.88
2018-04-10T09:43:06.452Z,38.37
2018-04-10T09:44:06.460Z,37.88
2018-04-10T09:45:06.460Z,37.88
2018-04-10T09:46:06.467Z,37.68
2018-04-10T09:47:06.466Z,38.46
2018-04-10T09:48:06.469Z,38.56
2018-04-10T09:49:06.495Z,38.17
2018-04-10T09:50:06.471Z,37.68
2018-04-10T09:51:06.474Z,37.78
2018-04-10T09:52:06.500Z,37.88
2018-04-10T09:53:06.481Z,37.98
2018-04-10T09:54:06.491Z,37.78
2018-04-10T09:55:06.548Z,37.39
2018-04-10T09:56:06.502Z,38.34
2018-04-10T09:57:06.494Z,38.44
2018-04-10T09:58:06.500Z,37.88
2018-04-10T09:59:06.497Z,38.37
2018-04-10T10:00:06.501Z,37.78
2018-04-10T10:01:06.508Z,37.88
2018-04-10T10:02:06.516Z,37.22
2018-04-10T10:03:06.517Z,37.51
2018-04-10T10:04:06.519Z,37.99
2018-04-10T10:05:06.642Z,36.93
2018-04-10T10:06:06.526Z,36.46
2018-04-10T10:07:06.528Z,36.75
2018-04-10T10:08:06.534Z,36.63
2018-04-10T10:09:06.535Z,36.63
2018-04-10T10:10:06.538Z,37.02
2018-04-10T10:11:06.557Z,37.49
2018-04-10T10:12:06.551Z,37.68
2018-04-10T10:13:06.555Z,37.39
2018-04-10T10:14:06.579Z,37.02
2018-04-10T10:15:06.565Z,36.65
2018-04-10T10:16:06.575Z,36.55
2018-04-10T10:17:06.575Z,36.46
2018-04-10T10:18:06.584Z,36.73
2018-04-10T10:19:06.585Z,37.10
2018-04-10T10:20:06.590Z,38.52
2018-04-10T10:21:06.595Z,38.25
2018-04-10T10:22:06.597Z,38.25
2018-04-10T10:23:06.691Z,39.18
2018-04-10T10:24:06.606Z,39.01
2018-04-10T10:25:06.617Z,38.54
2018-04-10T10:26:06.615Z,39.11
2018-04-10T10:27:06.625Z,38.54
2018-04-10T10:28:06.628Z,38.44
2018-04-10T10:29:06.628Z,38.71
2018-04-10T10:30:06.633Z,39.59
2018-04-10T10:31:06.641Z,39.29
2018-04-10T10:32:06.642Z,39.47
2018-04-10T10:33:06.657Z,39.39
2018-04-10T10:34:06.653Z,40.42
2018-04-10T10:35:06.652Z,40.25
2018-04-10T10:36:06.662Z,39.88
2018-04-10T10:37:06.661Z,39.41
2018-04-10T10:38:06.664Z,38.73
2018-04-10T10:39:06.671Z,39.22
2018-04-10T10:40:06.672Z,38.75
2018-04-10T10:41:06.676Z,38.64
2018-04-10T10:42:06.682Z,39.78
2018-04-10T10:43:06.683Z,38.91
2018-04-10T10:44:06.686Z,38.34
2018-04-10T10:45:06.711Z,37.39
2018-04-10T10:46:06.699Z,37.18
2018-04-10T10:47:06.707Z,37.18
2018-04-10T10:48:06.709Z,36.71
2018-04-10T10:49:06.705Z,36.42
2018-04-10T10:50:06.713Z,36.81
2018-04-10T10:51:06.713Z,36.61
2018-04-10T10:52:06.720Z,37.12
2018-04-10T10:53:06.721Z,37.49
2018-04-10T10:54:06.725Z,37.80
2018-04-10T10:55:06.739Z,37.80
2018-04-10T10:56:06.739Z,38.64
2018-04-10T10:57:06.737Z,38.77
2018-04-10T10:58:06.756Z,38.19
2018-04-10T10:59:06.743Z,38.29
2018-04-10T11:00:06.751Z,38.46
2018-04-10T11:01:06.777Z,38.37
2018-04-10T11:02:06.754Z,38.54
2018-04-10T11:03:06.760Z,39.39
2018-04-10T11:04:06.763Z,39.41
2018-04-10T11:05:06.769Z,38.44
2018-04-10T11:06:06.894Z,39.76
2018-04-10T11:07:06.775Z,39.39
2018-04-10T11:08:06.787Z,38.73
2018-04-10T11:09:06.785Z,38.54
2018-04-10T11:10:06.789Z,38.15
2018-04-10T11:11:06.792Z,38.34
2018-04-10T11:12:06.798Z,38.62
2018-04-10T11:13:06.798Z,39.29
2018-04-10T11:14:06.804Z,39.03
2018-04-10T11:15:06.808Z,38.44
2018-04-10T11:16:06.819Z,38.54
2018-04-10T11:17:06.813Z,38.64
2018-04-10T11:18:06.820Z,39.12
2018-04-10T11:19:06.826Z,39.67
2018-04-10T11:20:06.832Z,39.67
2018-04-10T11:21:06.832Z,40.34
2018-04-10T11:22:06.837Z,39.57
2018-04-10T11:23:06.836Z,39.57
2018-04-10T11:24:06.889Z,39.37
2018-04-10T11:25:06.858Z,39.37
2018-04-10T11:26:06.861Z,39.29
2018-04-10T11:27:06.852Z,39.49
2018-04-10T11:28:06.875Z,38.93
2018-04-10T11:29:06.862Z,39.03
2018-04-10T11:30:06.868Z,38.54
2018-04-10T11:31:06.867Z,39.29
2018-04-10T11:32:06.869Z,39.39
2018-04-10T11:33:06.885Z,39.59
2018-04-10T11:34:06.877Z,39.59
2018-04-10T11:35:06.879Z,39.41
2018-04-10T11:36:06.884Z,39.62
2018-04-10T11:37:06.888Z,39.03
2018-04-10T11:38:06.890Z,40.44
2018-04-10T11:39:06.898Z,40.61
2018-04-10T11:40:06.906Z,40.34
2018-04-10T11:41:06.950Z,39.84
2018-04-10T11:42:06.902Z,40.23
2018-04-10T11:43:06.926Z,41.10
2018-04-10T11:44:06.909Z,40.92
2018-04-10T11:45:06.918Z,40.54
2018-04-10T11:46:06.922Z,39.70
2018-04-10T11:47:06.916Z,39.22
2018-04-10T11:48:06.919Z,39.59
2018-04-10T11:49:06.919Z,39.59
2018-04-10T11:50:06.929Z,39.39
2018-04-10T11:51:06.935Z,39.69
2018-04-10T11:52:06.927Z,39.78
2018-04-10T11:53:06.929Z,39.69
2018-04-10T11:54:06.935Z,39.86
2018-04-10T11:55:06.925Z,39.59
2018-04-10T11:56:06.931Z,39.86
2018-04-10T11:57:06.929Z,41.00
2018-04-10T11:58:06.933Z,40.91
2018-04-10T11:59:06.932Z,40.81
2018-04-10T12:00:06.938Z,40.73
2018-04-10T12:01:06.935Z,40.25
2018-04-10T12:02:06.930Z,40.52
2018-04-10T12:03:06.928Z,40.11
2018-04-10T12:04:07.012Z,40.23
2018-04-10T12:05:06.927Z,40.61
2018-04-10T12:06:06.933Z,40.52
2018-04-10T12:07:06.924Z,40.71
2018-04-10T12:08:06.929Z,41.00
2018-04-10T12:09:06.924Z,42.05
2018-04-10T12:10:06.918Z,42.34
2018-04-10T12:11:06.915Z,42.80
2018-04-10T12:12:06.918Z,42.90
2018-04-10T12:13:06.915Z,42.88
2018-04-10T12:14:06.907Z,43.55
2018-04-10T12:15:06.906Z,44.12
2018-04-10T12:16:06.943Z,44.70
2018-04-10T12:17:07.011Z,45.18
2018-04-10T12:18:06.903Z,45.28
2018-04-10T12:19:06.903Z,45.37
2018-04-10T12:20:06.947Z,45.93
2018-04-10T12:21:06.883Z,45.25
2018-04-10T12:22:06.884Z,45.16
2018-04-10T12:23:06.879Z,44.89
2018-04-10T12:24:06.872Z,45.37
2018-04-10T12:25:06.871Z,45.57
2018-04-10T12:26:06.861Z,45.57
2018-04-10T12:27:06.859Z,45.18
2018-04-10T12:28:06.856Z,44.89
2018-04-10T12:29:06.843Z,45.35
2018-04-10T12:30:06.836Z,46.32
2018-04-10T12:31:06.833Z,46.78
2018-04-10T12:32:06.824Z,47.28
2018-04-10T12:33:06.828Z,46.12
2018-04-10T12:34:06.818Z,45.83
2018-04-10T12:35:06.810Z,45.64
2018-04-10T12:36:06.800Z,46.22
2018-04-10T12:37:06.816Z,46.32
2018-04-10T12:38:06.862Z,46.15
2018-04-10T12:39:06.783Z,45.86
2018-04-10T12:40:06.787Z,46.22
2018-04-10T12:41:06.775Z,45.76
2018-04-10T12:42:06.775Z,45.57
2018-04-10T12:43:06.799Z,45.37
2018-04-10T12:44:06.751Z,45.08
2018-04-10T12:45:06.748Z,44.70
2018-04-10T12:46:06.738Z,44.60
2018-04-10T12:47:06.733Z,43.54
2018-04-10T12:48:06.741Z,43.82
2018-04-10T12:49:06.722Z,44.02
2018-04-10T12:50:06.712Z,43.63
2018-04-10T12:51:06.710Z,43.34
2018-04-10T12:52:06.703Z,43.54